Flight Track Log - Related Links

Times and Time Zones

All times are in EDT time to prevent confusion due to time zone crossing. See the N682RW flight status page for this flight to view local times or setup timezone preferences in your user account.

Time Position Orientation Groundspeed Altitude Reporting Facility
EDT Latitude Longitude Course Direction KTS MPH feet Rate Location/Type
Fri 03:13:33 PM 42.1869 -83.3631 292° West 182 209 1,500  Level Cleveland Center
Fri 03:14:28 PM 42.1522 -83.4206 231° Southwest 232 267 3,800 2,534 Climbing Cleveland Center
Fri 03:15:29 PM 42.1067 -83.4911 229° Southwest 269 310 6,400 2,655 Climbing Cleveland Center
Fri 03:16:21 PM 42.1089 -83.5642 272° West 267 307 8,800 1,339 Climbing Cleveland Center
Fri 03:17:21 PM 42.1486 -83.6333 308° West 274 315 8,900 1,150 Climbing Cleveland Center
Fri 03:18:21 PM 42.1903 -83.7136 305° West 269 310 11,100 1,750 Climbing Cleveland Center
Fri 03:19:00 PM 42.4150 -84.1445 292° West  Level FlightAware Approximate
Fri 03:19:21 PM 42.2378 -83.8031 306° West 277 319 12,400  Level Cleveland Center
Fri 03:20:21 PM 42.2889 -83.9122 302° West 313 360 14,900 2,450 Climbing Cleveland Center
Fri 03:21:21 PM 42.3419 -84.0247 303° West 343 395 17,300 2,061 Climbing Cleveland Center
Fri 03:23:04 PM 42.4289 -84.2217 301° West 368 423 20,500 1,900 Climbing Chicago Center
Fri 03:23:21 PM 42.4283 -84.2656 269° West 353 406 21,100 2,104 Climbing Cleveland Center
Fri 03:24:21 PM 42.4319 -84.4067 272° West 358 412 23,200 2,250 Climbing Cleveland Center
Fri 03:25:21 PM 42.4336 -84.5475 271° West 371 427 25,600 1,964 Climbing Cleveland Center
Fri 03:26:11 PM 42.4400 -84.6672 274° West 366 421 26,800 1,393 Climbing Chicago Center
Fri 03:27:13 PM 42.4431 -84.8078 272° West 373 429 28,200 1,210 Climbing Chicago Center
Fri 03:28:15 PM 42.4469 -84.9517 272° West 380 437 29,300 1,694 Climbing Chicago Center
Fri 03:29:17 PM 42.4489 -85.0911 271° West 377 434 31,700 1,306 Climbing Chicago Center
Fri 03:30:19 PM 42.4514 -85.2233 272° West 358 412 32,000 145 Climbing Chicago Center
Fri 03:31:21 PM 42.4550 -85.3936 272° West 369 425 32,000  Level Chicago Center
Fri 03:32:23 PM 42.4567 -85.5356 271° West 376 433 32,000  Level Chicago Center
Fri 03:33:25 PM 42.4600 -85.6733 272° West 370 426 32,000  Level Chicago Center
Fri 03:34:27 PM 42.4619 -85.8139 271° West 373 429 32,000  Level Chicago Center
Fri 03:35:29 PM 42.4633 -85.9536 271° West 372 428 32,000  Level Chicago Center
Fri 03:36:31 PM 42.4658 -86.0950 271° West 374 430 32,000  Level Chicago Center
Fri 03:37:34 PM 42.4453 -86.2644 261° West 378 435 32,000  Level Chicago Center
Fri 03:38:36 PM 42.4283 -86.4047 261° West 377 434 32,000  Level Chicago Center
Fri 03:39:38 PM 42.4097 -86.5433 260° West 375 432 32,000  Level Chicago Center
Fri 03:40:40 PM 42.3936 -86.6764 261° West 378 435 32,000  Level Chicago Center
Fri 03:41:42 PM 42.3728 -86.8419 260° West 377 434 32,000  Level Chicago Center
Fri 03:42:44 PM 42.3550 -86.9808 260° West 376 433 32,000  Level Chicago Center
Fri 03:43:46 PM 42.3364 -87.1161 260° West 371 427 32,000  Level Chicago Center
Fri 03:44:48 PM 42.3178 -87.2489 259° West 365 420 32,000  Level Chicago Center
Fri 03:45:50 PM 42.3003 -87.3850 260° West 369 425 32,000  Level Chicago Center
Fri 03:46:52 PM 42.2783 -87.5497 260° West 374 430 32,000  Level Chicago Center
Fri 03:47:54 PM 42.2583 -87.6864 259° West 375 432 32,000  Level Chicago Center
Fri 03:48:57 PM 42.2386 -87.8236 259° West 377 434 32,000  Level Chicago Center
Fri 03:49:59 PM 42.2192 -87.9578 259° West 371 427 32,000  Level Chicago Center
Fri 03:51:01 PM 42.1781 -88.0875 247° West 379 436 32,000  Level Chicago Center
Fri 03:52:03 PM 42.1292 -88.2383 246° West 373 429 32,000  Level Chicago Center
Fri 03:53:05 PM 42.0872 -88.3664 246° West 377 434 32,000  Level Chicago Center
Fri 03:54:07 PM 42.0467 -88.4928 247° West 373 429 32,000  Level Chicago Center
Fri 03:55:09 PM 42.0039 -88.6206 246° West 377 434 32,000  Level Chicago Center
Fri 03:56:11 PM 41.9619 -88.7489 246° West 380 437 32,000  Level Chicago Center
Fri 03:57:13 PM 41.9114 -88.9036 246° West 382 440 32,000  Level Chicago Center
Fri 03:58:15 PM 41.8692 -89.0311 246° West 378 435 32,000  Level Chicago Center
Fri 03:59:17 PM 41.8269 -89.1583 246° West 377 434 32,000  Level Chicago Center
Fri 04:00:19 PM 41.7844 -89.2844 246° West 375 432 32,000  Level Chicago Center
Fri 04:01:21 PM 41.7333 -89.4386 246° West 378 435 32,000  Level Chicago Center
Fri 04:02:24 PM 41.6908 -89.5633 246° West 380 437 32,000  Level Chicago Center
Fri 04:03:26 PM 41.6489 -89.6908 246° West 377 434 32,000  Level Chicago Center
Fri 04:04:28 PM 41.6039 -89.8211 245° Southwest 386 444 32,000 532 Level Chicago Center
Fri 04:05:30 PM 41.5600 -89.9511 246° West 387 445 33,100 968 Climbing Chicago Center
Fri 04:06:32 PM 41.5069 -90.0692 239° Southwest 378 435 34,000 435 Climbing Chicago Center
Fri 04:07:34 PM 41.4122 -90.1875 223° Southwest 389 448 34,000  Level Chicago Center
Fri 04:08:36 PM 41.3311 -90.2833 222° Southwest 392 451 34,000  Level Chicago Center
Fri 04:09:38 PM 41.2497 -90.3794 222° Southwest 392 451 34,000  Level Chicago Center
Fri 04:10:40 PM 41.1692 -90.4731 221° Southwest 388 447 34,000  Level Chicago Center
Fri 04:11:42 PM 41.0908 -90.5678 222° Southwest 385 443 34,000  Level Chicago Center
Fri 04:12:44 PM 40.9942 -90.6803 221° Southwest 387 445 34,000  Level Chicago Center
Fri 04:13:47 PM 40.9131 -90.7725 221° Southwest 386 444 34,000  Level Chicago Center
Fri 04:14:48 PM 40.8342 -90.8658 222° Southwest 382 440 34,000  Level Chicago Center
Fri 04:15:50 PM 40.7556 -90.9575 221° Southwest 380 437 34,000  Level Chicago Center
Fri 04:16:53 PM 40.6756 -91.0500 221° Southwest 383 441 34,000  Level Chicago Center
Fri 04:17:55 PM 40.5792 -91.1586 221° Southwest 381 438 34,000  Level Chicago Center
Fri 04:18:57 PM 40.4992 -91.2506 221° Southwest 382 440 34,000  Level Chicago Center
Fri 04:19:59 PM 40.4183 -91.3450 222° Southwest 377 434 34,000  Level Chicago Center
Fri 04:21:01 PM 40.3389 -91.4344 221° Southwest 377 434 34,000  Level Chicago Center
Fri 04:21:32 PM 40.3067 -91.4700 220° Southwest 377 434 34,000  Level Kansas City Center
Fri 04:22:34 PM 40.2275 -91.5611 221° Southwest 379 436 34,000  Level Kansas City Center
Fri 04:23:34 PM 40.1297 -91.6703 221° Southwest 384 442 34,000  Level Kansas City Center
Fri 04:24:37 PM 40.0506 -91.7600 221° Southwest 381 438 34,000  Level Kansas City Center
Fri 04:25:38 PM 39.9706 -91.8506 221° Southwest 382 440 34,000  Level Kansas City Center
Fri 04:26:40 PM 39.8908 -91.9397 221° Southwest 379 436 34,000  Level Kansas City Center
Fri 04:27:43 PM 39.8114 -92.0269 220° Southwest 377 434 34,000  Level Kansas City Center
Fri 04:28:45 PM 39.7331 -92.1153 221° Southwest 374 430 34,000  Level Kansas City Center
Fri 04:29:46 PM 39.6361 -92.2214 220° Southwest 378 435 34,000  Level Kansas City Center
Fri 04:30:49 PM 39.5553 -92.3117 221° Southwest 383 441 34,000  Level Kansas City Center
Fri 04:31:50 PM 39.4750 -92.3992 220° Southwest 380 437 34,000  Level Kansas City Center
Fri 04:32:54 PM 39.3947 -92.4867 220° Southwest 379 436 34,000  Level Kansas City Center
Fri 04:33:54 PM 39.3136 -92.5764 221° Southwest 382 440 34,000  Level Kansas City Center
Fri 04:34:58 PM 39.2189 -92.6806 220° Southwest 379 436 34,000  Level Kansas City Center
Fri 04:35:58 PM 39.1397 -92.7661 220° Southwest 376 433 34,000  Level Kansas City Center
Fri 04:37:02 PM 39.0581 -92.8517 219° Southwest 378 435 34,000  Level Kansas City Center
Fri 04:38:02 PM 38.9756 -92.9419 220° Southwest 380 437 34,000  Level Kansas City Center
Fri 04:39:05 PM 38.8944 -93.0300 220° Southwest 380 437 34,000  Level Kansas City Center
Fri 04:40:09 PM 38.8111 -93.1186 220° Southwest 385 443 34,000  Level Kansas City Center
Fri 04:41:10 PM 38.7128 -93.2244 220° Southwest 386 444 34,000  Level Kansas City Center
Fri 04:42:10 PM 38.6297 -93.3133 220° Southwest 387 445 34,000  Level Kansas City Center
Fri 04:43:14 PM 38.5469 -93.4014 220° Southwest 388 447 34,000  Level Kansas City Center
Fri 04:44:14 PM 38.4633 -93.4897 220° Southwest 388 447 34,000  Level Kansas City Center
Fri 04:45:18 PM 38.3781 -93.5794 220° Southwest 393 452 34,000  Level Kansas City Center
Fri 04:46:19 PM 38.2939 -93.6675 219° Southwest 394 453 34,000  Level Kansas City Center
Fri 04:47:23 PM 38.1939 -93.7831 222° Southwest 403 464 34,000  Level Kansas City Center
Fri 04:48:24 PM 38.1267 -93.8933 232° Southwest 398 458 34,000  Level Kansas City Center
Fri 04:49:24 PM 38.0619 -94.0042 233° Southwest 392 451 34,000  Level Kansas City Center
Fri 04:50:28 PM 37.9933 -94.1153 232° Southwest 393 452 34,000  Level Kansas City Center
Fri 04:51:28 PM 37.9275 -94.2233 232° Southwest 392 451 34,000  Level Kansas City Center
Fri 04:52:32 PM 37.8628 -94.3319 233° Southwest 388 447 34,000  Level Kansas City Center
Fri 04:53:33 PM 37.7961 -94.4447 233° Southwest 384 442 34,000  Level Kansas City Center
Fri 04:54:36 PM 37.7217 -94.5661 232° Southwest 388 447 34,000  Level Kansas City Center
Fri 04:55:37 PM 37.6561 -94.6728 232° Southwest 385 443 34,000  Level Kansas City Center
Fri 04:56:41 PM 37.5917 -94.7806 233° Southwest 385 443 34,000  Level Kansas City Center
Fri 04:57:42 PM 37.5283 -94.8881 233° Southwest 384 442 34,000  Level Kansas City Center
Fri 04:58:46 PM 37.4578 -94.9881 228° Southwest 388 447 34,000  Level Kansas City Center
Fri 04:59:47 PM 37.3461 -95.0739 211° Southwest 392 451 34,000  Level Kansas City Center
Fri 05:00:48 PM 37.2456 -95.1333 205° Southwest 398 458 34,000  Level Kansas City Center
Fri 05:01:49 PM 37.1467 -95.1964 207° Southwest 398 458 34,000  Level Kansas City Center
Fri 05:02:53 PM 37.0475 -95.2594 207° Southwest 398 458 34,000  Level Kansas City Center
Fri 05:03:54 PM 36.9481 -95.3214 206° Southwest 399 459 34,000  Level Kansas City Center
Fri 05:04:57 PM 36.8497 -95.3833 207° Southwest 397 457 34,000  Level Kansas City Center
Fri 05:05:58 PM 36.7308 -95.4575 207° Southwest 397 457 34,000  Level Kansas City Center
Fri 05:07:02 PM 36.6333 -95.5197 207° Southwest 396 456 34,000  Level Kansas City Center
Fri 05:08:02 PM 36.5406 -95.5767 206° Southwest 398 458 34,000  Level Kansas City Center
Fri 05:09:06 PM 36.4406 -95.6372 206° Southwest 400 460 34,000  Level Kansas City Center
Fri 05:10:06 PM 36.3197 -95.7067 205° Southwest 400 460 34,000  Level Kansas City Center
Fri 05:11:09 PM 36.1992 -95.6917 174° South 429 494 34,000  Level Kansas City Center
Fri 05:12:10 PM 36.0783 -95.6594 168° South 439 505 34,000  Level Kansas City Center
Fri 05:13:14 PM 35.9567 -95.6269 168° South 442 509 34,000 -387 Level Kansas City Center
Fri 05:14:14 PM 35.8367 -95.5958 168° South 442 509 33,200 -823 Descending Kansas City Center
Fri 05:15:18 PM 35.7144 -95.5644 168° South 444 511 32,300 -576 Descending Kansas City Center
Fri 05:16:19 PM 35.5667 -95.5264 168° South 448 516 32,000 -167 Descending Kansas City Center
Fri 05:17:06 PM 35.4669 -95.5044 170° South 448 516 32,000  Level Fort Worth Center
Fri 05:18:06 PM 35.3458 -95.5072 181° South 448 516 32,000  Level Fort Worth Center
Fri 05:19:06 PM 35.2231 -95.5128 182° South 442 509 32,000  Level Fort Worth Center
Fri 05:20:06 PM 35.1019 -95.5153 181° South 437 503 32,000  Level Fort Worth Center
Fri 05:21:06 PM 34.9789 -95.5181 181° South 437 503 32,000  Level Fort Worth Center
Fri 05:22:06 PM 34.8581 -95.5258 183° South 437 503 32,000 -100 Level Fort Worth Center
Fri 05:23:06 PM 34.7439 -95.5611 194° South 427 491 31,800 -950 Descending Fort Worth Center
Fri 05:24:06 PM 34.6364 -95.6192 204° Southwest 427 491 30,100 -1,900 Descending Fort Worth Center
Fri 05:25:06 PM 34.5286 -95.6767 204° Southwest 427 491 28,000 -2,200 Descending Fort Worth Center
Fri 05:26:06 PM 34.4317 -95.7567 214° Southwest 427 491 25,700 -2,200 Descending Fort Worth Center
Fri 05:27:06 PM 34.3239 -95.8067 201° Southwest 420 483 23,600 -2,000 Descending Fort Worth Center
Fri 05:28:06 PM 34.2306 -95.8661 208° Southwest 398 458 21,700 -1,750 Descending Fort Worth Center
Fri 05:29:06 PM 34.1353 -95.9156 203° Southwest 387 445 20,100 -1,600 Descending Fort Worth Center
Fri 05:30:06 PM 34.0583 -95.9519 201° Southwest 365 420 18,500 -1,500 Descending Fort Worth Center
Fri 05:31:06 PM 33.9672 -95.9986 203° Southwest 347 399 17,100 -1,800 Descending Fort Worth Center
Fri 05:32:06 PM 33.8822 -96.0425 203° Southwest 347 399 14,900 -2,300 Descending Fort Worth Center
Fri 05:33:06 PM 33.7947 -96.0789 199° South 341 392 12,500 -1,950 Descending Fort Worth Center
Fri 05:34:06 PM 33.6992 -96.1253 202° Southwest 341 392 11,000 -1,000 Descending Fort Worth Center
Fri 05:35:06 PM 33.6244 -96.1636 203° Southwest 334 384 10,500 -500 Descending Fort Worth Center
Fri 05:36:06 PM 33.5289 -96.2100 202° Southwest 329 379 10,000 -350 Descending Fort Worth Center
Fri 05:37:06 PM 33.4583 -96.2433 202° Southwest 324 373 9,800 -500 Descending Fort Worth Center
Fri 05:38:06 PM 33.3814 -96.2792 201° Southwest 286 329 9,000 -400 Descending Fort Worth Center
Fri 05:39:06 PM 33.3192 -96.3097 202° Southwest 274 315 9,000 -400 Level Fort Worth Center
Fri 05:40:06 PM 33.2528 -96.3553 210° Southwest 256 295 8,200 -1,000 Descending Fort Worth Center
Fri 05:41:06 PM 33.2197 -96.4178 238° Southwest 251 289 7,000 -1,100 Descending Fort Worth Center
Fri 05:42:06 PM 33.1869 -96.4975 244° Southwest 251 289 6,000 -500 Descending Fort Worth Center
Fri 05:43:06 PM 33.1667 -96.5647 250° West 251 289 6,000  Level Fort Worth Center
Fri 05:44:06 PM 33.1442 -96.6394 250° West 245 282 6,000 -500 Level Fort Worth Center
Fri 05:45:06 PM 33.1236 -96.7089 251° West 217 250 5,000 -800 Descending Fort Worth Center
Fri 05:45:21 PM 33.1167 -96.7167 223° Southwest 202 232 5,000 -80 Level Dallas / Fort Worth TRACON
Fri 05:46:21 PM 33.0833 -96.7667 232° Southwest 193 222 4,900 -500 Descending Dallas / Fort Worth TRACON
Fri 05:47:21 PM 33.0333 -96.8167 220° Southwest 196 226 4,000 -950 Descending Dallas / Fort Worth TRACON
Fri 05:48:21 PM 33.0000 -96.8500 220° Southwest 191 220 3,000 -900 Descending Dallas / Fort Worth TRACON
Fri 05:49:21 PM 32.9667 -96.8833 220° Southwest 156 180 2,200 -500 Descending Dallas / Fort Worth TRACON
Fri 05:50:21 PM 32.9333 -96.9333 232° Southwest 166 191 2,000 -198 Descending Dallas / Fort Worth TRACON
Fri 05:51:22 PM 32.9000 -96.9167 157° South 166 191 1,800 -417 Descending Dallas / Fort Worth TRACON
Fri 05:52:16 PM 32.8667 -96.8833 140° Southeast 137 158 1,200 -667 Descending Dallas / Fort Worth TRACON
Fri 05:54:00 PM 32.8471 -96.8518 196° South  Level Estimated
Fri 06:01:00 PM 32.8471 -96.8518 196° South  Level Estimated

Login

Don't have an account? Register now (free) for customized features, flight alerts, and more!